sensor_id;sensor_type;location;lat;lon;timestamp;pressure;altitude;pressure_sealevel;temperature;humidity
21640;BME280;10981;45.462;10.974;2022-09-14T00:01:38;100338.84;;;20.35;100.00
21640;BME280;10981;45.462;10.974;2022-09-14T00:04:12;100335.97;;;20.30;100.00
21640;BME280;10981;45.462;10.974;2022-09-14T00:06:42;100338.84;;;20.35;100.00
21640;BME280;10981;45.462;10.974;2022-09-14T00:09:18;100338.00;;;20.35;100.00
21640;BME280;10981;45.462;10.974;2022-09-14T00:11:48;100338.06;;;20.41;100.00
21640;BME280;10981;45.462;10.974;2022-09-14T00:14:17;100339.91;;;20.48;100.00
21640;BME280;10981;45.462;10.974;2022-09-14T00:16:46;100331.97;;;20.54;100.00
21640;BME280;10981;45.462;10.974;2022-09-14T00:19:22;100331.19;;;20.61;100.00
21640;BME280;10981;45.462;10.974;2022-09-14T00:21:54;100315.47;;;20.66;100.00
21640;BME280;10981;45.462;10.974;2022-09-14T00:24:24;100319.34;;;20.70;100.00
21640;BME280;10981;45.462;10.974;2022-09-14T00:26:53;100318.16;;;20.72;100.00
21640;BME280;10981;45.462;10.974;2022-09-14T00:29:21;100304.25;;;20.70;100.00
21640;BME280;10981;45.462;10.974;2022-09-14T00:31:51;100301.13;;;20.67;100.00
21640;BME280;10981;45.462;10.974;2022-09-14T00:34:19;100304.84;;;20.66;100.00
21640;BME280;10981;45.462;10.974;2022-09-14T00:36:49;100297.47;;;20.68;100.00
21640;BME280;10981;45.462;10.974;2022-09-14T00:39:19;100298.72;;;20.72;100.00
21640;BME280;10981;45.462;10.974;2022-09-14T00:41:49;100309.97;;;20.74;100.00
21640;BME280;10981;45.462;10.974;2022-09-14T00:46:50;100304.06;;;20.79;100.00
21640;BME280;10981;45.462;10.974;2022-09-14T00:52:06;100316.53;;;20.30;100.00
21640;BME280;10981;45.462;10.974;2022-09-14T00:54:48;100314.38;;;20.12;100.00
21640;BME280;10981;45.462;10.974;2022-09-14T00:57:17;100310.47;;;20.01;100.00
21640;BME280;10981;45.462;10.974;2022-09-14T00:59:48;100312.00;;;19.88;100.00
21640;BME280;10981;45.462;10.974;2022-09-14T01:02:19;100309.94;;;19.84;100.00
21640;BME280;10981;45.462;10.974;2022-09-14T01:04:49;100306.47;;;19.83;100.00
21640;BME280;10981;45.462;10.974;2022-09-14T01:10:11;100300.75;;;19.86;100.00
21640;BME280;10981;45.462;10.974;2022-09-14T01:18:26;100282.69;;;20.03;100.00
21640;BME280;10981;45.462;10.974;2022-09-14T01:21:08;100279.63;;;20.06;100.00
21640;BME280;10981;45.462;10.974;2022-09-14T01:29:14;100257.41;;;20.14;100.00
21640;BME280;10981;45.462;10.974;2022-09-14T01:31:46;100260.09;;;20.21;100.00
21640;BME280;10981;45.462;10.974;2022-09-14T01:34:48;100258.50;;;20.27;100.00
21640;BME280;10981;45.462;10.974;2022-09-14T01:37:25;100244.94;;;20.15;100.00
21640;BME280;10981;45.462;10.974;2022-09-14T01:40:07;100256.00;;;20.18;100.00
21640;BME280;10981;45.462;10.974;2022-09-14T01:42:41;100244.56;;;20.18;100.00
21640;BME280;10981;45.462;10.974;2022-09-14T01:45:15;100238.81;;;20.14;100.00
21640;BME280;10981;45.462;10.974;2022-09-14T01:47:46;100231.63;;;20.08;100.00
21640;BME280;10981;45.462;10.974;2022-09-14T01:50:45;100244.53;;;20.11;100.00
21640;BME280;10981;45.462;10.974;2022-09-14T01:53:18;100244.72;;;20.09;100.00
21640;BME280;10981;45.462;10.974;2022-09-14T01:56:16;100242.66;;;19.98;100.00
21640;BME280;10981;45.462;10.974;2022-09-14T01:58:54;100252.78;;;19.88;100.00
21640;BME280;10981;45.462;10.974;2022-09-14T02:01:32;100239.69;;;19.86;100.00
21640;BME280;10981;45.462;10.974;2022-09-14T02:04:04;100238.50;;;19.89;100.00
21640;BME280;10981;45.462;10.974;2022-09-14T02:06:43;100245.25;;;19.91;100.00
21640;BME280;10981;45.462;10.974;2022-09-14T02:09:17;100233.81;;;19.91;100.00
21640;BME280;10981;45.462;10.974;2022-09-14T02:11:49;100226.22;;;19.88;100.00
21640;BME280;10981;45.462;10.974;2022-09-14T02:14:18;100220.31;;;19.86;100.00
21640;BME280;10981;45.462;10.974;2022-09-14T02:16:46;100215.38;;;19.83;100.00
21640;BME280;10981;45.462;10.974;2022-09-14T02:19:14;100207.41;;;19.83;100.00
21640;BME280;10981;45.462;10.974;2022-09-14T02:21:46;100206.78;;;19.81;100.00
21640;BME280;10981;45.462;10.974;2022-09-14T02:24:14;100201.69;;;19.79;100.00
21640;BME280;10981;45.462;10.974;2022-09-14T02:26:43;100199.63;;;19.81;100.00
21640;BME280;10981;45.462;10.974;2022-09-14T02:29:11;100180.44;;;19.79;100.00
21640;BME280;10981;45.462;10.974;2022-09-14T02:35:06;100176.53;;;19.75;100.00
21640;BME280;10981;45.462;10.974;2022-09-14T02:43:19;100156.13;;;19.75;100.00
21640;BME280;10981;45.462;10.974;2022-09-14T02:51:27;100175.19;;;19.86;100.00
21640;BME280;10981;45.462;10.974;2022-09-14T02:54:13;100179.28;;;19.88;100.00
21640;BME280;10981;45.462;10.974;2022-09-14T02:56:43;100179.31;;;19.95;100.00
21640;BME280;10981;45.462;10.974;2022-09-14T02:59:12;100192.44;;;20.03;100.00
21640;BME280;10981;45.462;10.974;2022-09-14T03:01:43;100182.97;;;19.94;100.00
21640;BME280;10981;45.462;10.974;2022-09-14T03:04:11;100193.84;;;19.64;100.00
21640;BME280;10981;45.462;10.974;2022-09-14T03:06:39;100193.03;;;19.35;100.00
21640;BME280;10981;45.462;10.974;2022-09-14T03:09:07;100192.50;;;19.18;100.00
21640;BME280;10981;45.462;10.974;2022-09-14T03:11:35;100197.44;;;19.00;100.00
21640;BME280;10981;45.462;10.974;2022-09-14T03:14:04;100195.56;;;18.93;100.00
21640;BME280;10981;45.462;10.974;2022-09-14T03:16:32;100198.22;;;18.93;100.00
21640;BME280;10981;45.462;10.974;2022-09-14T03:19:00;100193.00;;;19.00;100.00
21640;BME280;10981;45.462;10.974;2022-09-14T03:21:28;100186.47;;;19.03;100.00
21640;BME280;10981;45.462;10.974;2022-09-14T03:23:57;100182.44;;;19.07;100.00
21640;BME280;10981;45.462;10.974;2022-09-14T03:26:26;100182.06;;;19.17;100.00
21640;BME280;10981;45.462;10.974;2022-09-14T03:28:57;100175.00;;;19.24;100.00
21640;BME280;10981;45.462;10.974;2022-09-14T03:31:26;100168.34;;;19.35;100.00
21640;BME280;10981;45.462;10.974;2022-09-14T03:33:55;100165.34;;;19.44;100.00
21640;BME280;10981;45.462;10.974;2022-09-14T03:36:26;100164.50;;;19.37;100.00
21640;BME280;10981;45.462;10.974;2022-09-14T03:38:57;100163.22;;;19.33;100.00
21640;BME280;10981;45.462;10.974;2022-09-14T03:41:25;100171.38;;;19.32;100.00
21640;BME280;10981;45.462;10.974;2022-09-14T03:43:54;100175.88;;;19.31;100.00
21640;BME280;10981;45.462;10.974;2022-09-14T03:46:25;100174.22;;;19.30;100.00
21640;BME280;10981;45.462;10.974;2022-09-14T03:48:54;100167.03;;;19.24;100.00
21640;BME280;10981;45.462;10.974;2022-09-14T03:51:23;100174.38;;;19.22;100.00
21640;BME280;10981;45.462;10.974;2022-09-14T03:53:51;100179.28;;;19.25;100.00
21640;BME280;10981;45.462;10.974;2022-09-14T03:56:21;100183.69;;;19.11;100.00
21640;BME280;10981;45.462;10.974;2022-09-14T03:58:49;100176.44;;;18.98;100.00
21640;BME280;10981;45.462;10.974;2022-09-14T04:01:20;100176.72;;;18.88;100.00
21640;BME280;10981;45.462;10.974;2022-09-14T04:03:49;100182.38;;;18.78;100.00
21640;BME280;10981;45.462;10.974;2022-09-14T04:06:18;100178.69;;;18.79;100.00
21640;BME280;10981;45.462;10.974;2022-09-14T04:08:47;100177.44;;;18.75;100.00
21640;BME280;10981;45.462;10.974;2022-09-14T04:11:19;100182.88;;;18.67;100.00
21640;BME280;10981;45.462;10.974;2022-09-14T04:13:48;100187.53;;;18.65;100.00
21640;BME280;10981;45.462;10.974;2022-09-14T04:16:18;100172.28;;;18.67;100.00
21640;BME280;10981;45.462;10.974;2022-09-14T04:18:49;100172.88;;;18.69;100.00
21640;BME280;10981;45.462;10.974;2022-09-14T04:21:20;100182.53;;;18.77;100.00
21640;BME280;10981;45.462;10.974;2022-09-14T04:23:52;100171.78;;;18.78;100.00
21640;BME280;10981;45.462;10.974;2022-09-14T04:26:41;100186.06;;;18.84;100.00
21640;BME280;10981;45.462;10.974;2022-09-14T04:29:10;100187.16;;;18.90;100.00
21640;BME280;10981;45.462;10.974;2022-09-14T04:31:39;100195.78;;;18.77;100.00
21640;BME280;10981;45.462;10.974;2022-09-14T04:34:10;100188.94;;;18.61;100.00
21640;BME280;10981;45.462;10.974;2022-09-14T04:36:39;100188.72;;;18.62;100.00
21640;BME280;10981;45.462;10.974;2022-09-14T04:39:10;100194.22;;;18.61;100.00
21640;BME280;10981;45.462;10.974;2022-09-14T04:41:40;100216.78;;;18.57;100.00
21640;BME280;10981;45.462;10.974;2022-09-14T04:44:09;100208.97;;;18.49;100.00
21640;BME280;10981;45.462;10.974;2022-09-14T04:46:37;100213.03;;;18.29;100.00
21640;BME280;10981;45.462;10.974;2022-09-14T04:49:13;100213.31;;;18.20;100.00
21640;BME280;10981;45.462;10.974;2022-09-14T04:51:41;100210.66;;;18.20;100.00
21640;BME280;10981;45.462;10.974;2022-09-14T04:54:13;100211.88;;;18.17;100.00
21640;BME280;10981;45.462;10.974;2022-09-14T04:56:42;100214.78;;;18.22;100.00
21640;BME280;10981;45.462;10.974;2022-09-14T04:59:11;100211.03;;;18.32;100.00
21640;BME280;10981;45.462;10.974;2022-09-14T05:01:43;100211.75;;;18.40;100.00
21640;BME280;10981;45.462;10.974;2022-09-14T05:04:12;100206.88;;;18.44;100.00
21640;BME280;10981;45.462;10.974;2022-09-14T05:06:42;100201.47;;;18.52;100.00
21640;BME280;10981;45.462;10.974;2022-09-14T05:09:13;100200.59;;;18.67;100.00
21640;BME280;10981;45.462;10.974;2022-09-14T05:11:42;100195.78;;;18.77;100.00
21640;BME280;10981;45.462;10.974;2022-09-14T05:14:12;100197.94;;;18.88;100.00
21640;BME280;10981;45.462;10.974;2022-09-14T05:16:41;100199.84;;;18.94;100.00
21640;BME280;10981;45.462;10.974;2022-09-14T05:19:13;100199.91;;;19.01;100.00
21640;BME280;10981;45.462;10.974;2022-09-14T05:21:43;100198.94;;;19.09;100.00
21640;BME280;10981;45.462;10.974;2022-09-14T05:24:18;100196.75;;;18.91;100.00
21640;BME280;10981;45.462;10.974;2022-09-14T05:26:47;100202.28;;;18.74;100.00
21640;BME280;10981;45.462;10.974;2022-09-14T05:29:18;100195.28;;;18.67;100.00
21640;BME280;10981;45.462;10.974;2022-09-14T05:31:47;100195.09;;;18.68;100.00
21640;BME280;10981;45.462;10.974;2022-09-14T05:34:15;100191.69;;;18.74;100.00
21640;BME280;10981;45.462;10.974;2022-09-14T05:36:46;100193.59;;;18.81;100.00
21640;BME280;10981;45.462;10.974;2022-09-14T05:39:14;100201.50;;;18.95;100.00
21640;BME280;10981;45.462;10.974;2022-09-14T05:41:49;100209.56;;;19.09;100.00
21640;BME280;10981;45.462;10.974;2022-09-14T05:44:18;100200.06;;;19.21;100.00
21640;BME280;10981;45.462;10.974;2022-09-14T05:46:46;100190.78;;;19.32;100.00
21640;BME280;10981;45.462;10.974;2022-09-14T05:49:14;100196.94;;;19.39;100.00
21640;BME280;10981;45.462;10.974;2022-09-14T05:51:42;100190.34;;;19.28;100.00
21640;BME280;10981;45.462;10.974;2022-09-14T05:54:10;100182.19;;;19.30;100.00
21640;BME280;10981;45.462;10.974;2022-09-14T05:56:38;100185.50;;;19.39;100.00
21640;BME280;10981;45.462;10.974;2022-09-14T05:59:07;100192.75;;;19.58;100.00
21640;BME280;10981;45.462;10.974;2022-09-14T06:01:35;100188.03;;;19.82;100.00
21640;BME280;10981;45.462;10.974;2022-09-14T06:04:03;100176.28;;;20.05;100.00
21640;BME280;10981;45.462;10.974;2022-09-14T06:06:32;100170.22;;;20.31;100.00
21640;BME280;10981;45.462;10.974;2022-09-14T06:09:01;100162.28;;;20.45;100.00
21640;BME280;10981;45.462;10.974;2022-09-14T06:11:32;100153.09;;;20.54;100.00
21640;BME280;10981;45.462;10.974;2022-09-14T06:14:00;100156.59;;;20.68;100.00
21640;BME280;10981;45.462;10.974;2022-09-14T06:16:29;100150.31;;;20.82;100.00
21640;BME280;10981;45.462;10.974;2022-09-14T06:19:01;100147.44;;;20.90;100.00
21640;BME280;10981;45.462;10.974;2022-09-14T06:21:31;100147.25;;;20.99;100.00
21640;BME280;10981;45.462;10.974;2022-09-14T06:23:59;100145.78;;;21.10;100.00
21640;BME280;10981;45.462;10.974;2022-09-14T06:26:28;100140.06;;;21.19;100.00
21640;BME280;10981;45.462;10.974;2022-09-14T06:28:56;100132.47;;;21.23;100.00
21640;BME280;10981;45.462;10.974;2022-09-14T06:31:24;100131.00;;;21.34;100.00
21640;BME280;10981;45.462;10.974;2022-09-14T06:33:53;100125.44;;;21.49;100.00
21640;BME280;10981;45.462;10.974;2022-09-14T06:36:25;100133.22;;;21.57;100.00
21640;BME280;10981;45.462;10.974;2022-09-14T06:38:54;100145.00;;;21.88;100.00
21640;BME280;10981;45.462;10.974;2022-09-14T06:41:25;100157.31;;;22.60;100.00
21640;BME280;10981;45.462;10.974;2022-09-14T06:43:57;100147.00;;;23.76;100.00
21640;BME280;10981;45.462;10.974;2022-09-14T06:46:29;100157.72;;;24.37;100.00
21640;BME280;10981;45.462;10.974;2022-09-14T06:49:01;100162.38;;;24.42;100.00
21640;BME280;10981;45.462;10.974;2022-09-14T06:51:38;100180.28;;;24.11;100.00
21640;BME280;10981;45.462;10.974;2022-09-14T06:54:07;100176.09;;;24.03;100.00
21640;BME280;10981;45.462;10.974;2022-09-14T06:56:41;100179.78;;;24.02;100.00
21640;BME280;10981;45.462;10.974;2022-09-14T06:59:11;100175.09;;;24.16;100.00
21640;BME280;10981;45.462;10.974;2022-09-14T07:01:40;100167.50;;;24.13;100.00
21640;BME280;10981;45.462;10.974;2022-09-14T07:04:09;100163.50;;;24.22;100.00
21640;BME280;10981;45.462;10.974;2022-09-14T07:06:45;100155.28;;;24.36;100.00
21640;BME280;10981;45.462;10.974;2022-09-14T07:09:15;100165.06;;;24.42;100.00
21640;BME280;10981;45.462;10.974;2022-09-14T07:11:44;100170.78;;;24.57;100.00
21640;BME280;10981;45.462;10.974;2022-09-14T07:14:12;100187.28;;;24.85;100.00
21640;BME280;10981;45.462;10.974;2022-09-14T07:16:40;100187.75;;;24.93;100.00
21640;BME280;10981;45.462;10.974;2022-09-14T07:19:12;100201.25;;;25.10;100.00
21640;BME280;10981;45.462;10.974;2022-09-14T07:21:41;100213.13;;;25.14;100.00
21640;BME280;10981;45.462;10.974;2022-09-14T07:24:12;100217.44;;;25.04;100.00
21640;BME280;10981;45.462;10.974;2022-09-14T07:26:42;100232.25;;;24.76;100.00
21640;BME280;10981;45.462;10.974;2022-09-14T07:29:15;100254.22;;;24.66;100.00
21640;BME280;10981;45.462;10.974;2022-09-14T07:31:46;100258.22;;;24.57;100.00
21640;BME280;10981;45.462;10.974;2022-09-14T07:34:15;100268.22;;;24.61;100.00
21640;BME280;10981;45.462;10.974;2022-09-14T07:36:43;100268.31;;;24.55;100.00
21640;BME280;10981;45.462;10.974;2022-09-14T07:39:14;100279.91;;;24.67;100.00
21640;BME280;10981;45.462;10.974;2022-09-14T07:41:42;100294.91;;;24.99;100.00
21640;BME280;10981;45.462;10.974;2022-09-14T07:44:14;100293.91;;;25.35;100.00
21640;BME280;10981;45.462;10.974;2022-09-14T07:46:44;100295.81;;;25.58;100.00
21640;BME280;10981;45.462;10.974;2022-09-14T07:49:13;100298.13;;;25.67;100.00
21640;BME280;10981;45.462;10.974;2022-09-14T07:51:42;100301.41;;;25.69;100.00
21640;BME280;10981;45.462;10.974;2022-09-14T07:54:12;100310.47;;;25.79;100.00
21640;BME280;10981;45.462;10.974;2022-09-14T07:56:41;100320.84;;;25.88;100.00
21640;BME280;10981;45.462;10.974;2022-09-14T07:59:12;100325.72;;;25.91;100.00
21640;BME280;10981;45.462;10.974;2022-09-14T08:02:00;100337.97;;;25.87;100.00
21640;BME280;10981;45.462;10.974;2022-09-14T08:04:29;100331.31;;;25.89;100.00
21640;BME280;10981;45.462;10.974;2022-09-14T08:06:57;100323.63;;;25.81;100.00
21640;BME280;10981;45.462;10.974;2022-09-14T08:09:25;100319.09;;;26.17;100.00
21640;BME280;10981;45.462;10.974;2022-09-14T08:11:54;100317.00;;;26.48;100.00
21640;BME280;10981;45.462;10.974;2022-09-14T08:14:26;100309.69;;;26.72;100.00
21640;BME280;10981;45.462;10.974;2022-09-14T08:16:54;100314.88;;;26.91;100.00
21640;BME280;10981;45.462;10.974;2022-09-14T08:19:22;100319.22;;;26.80;100.00
21640;BME280;10981;45.462;10.974;2022-09-14T08:21:50;100316.50;;;26.63;100.00
21640;BME280;10981;45.462;10.974;2022-09-14T08:24:20;100319.84;;;26.70;100.00
21640;BME280;10981;45.462;10.974;2022-09-14T08:26:49;100325.88;;;26.89;100.00
21640;BME280;10981;45.462;10.974;2022-09-14T08:29:18;100325.09;;;26.77;100.00
21640;BME280;10981;45.462;10.974;2022-09-14T08:31:47;100328.75;;;26.59;100.00
21640;BME280;10981;45.462;10.974;2022-09-14T08:34:15;100332.63;;;26.51;100.00
21640;BME280;10981;45.462;10.974;2022-09-14T08:36:46;100322.81;;;26.57;100.00
21640;BME280;10981;45.462;10.974;2022-09-14T08:39:15;100319.50;;;26.67;100.00
21640;BME280;10981;45.462;10.974;2022-09-14T08:41:55;100317.84;;;26.78;100.00
21640;BME280;10981;45.462;10.974;2022-09-14T08:47:00;100322.25;;;26.84;100.00
21640;BME280;10981;45.462;10.974;2022-09-14T08:52:50;100320.41;;;26.84;100.00
21640;BME280;10981;45.462;10.974;2022-09-14T08:58:44;100324.53;;;26.63;100.00
21640;BME280;10981;45.462;10.974;2022-09-14T09:04:57;100314.72;;;26.28;100.00
21640;BME280;10981;45.462;10.974;2022-09-14T09:07:08;100318.25;;;26.17;100.00
21640;BME280;10981;45.462;10.974;2022-09-14T09:09:42;100326.28;;;26.29;100.00
21640;BME280;10981;45.462;10.974;2022-09-14T09:12:17;100332.31;;;26.36;100.00
21640;BME280;10981;45.462;10.974;2022-09-14T09:14:58;100320.94;;;26.57;100.00
21640;BME280;10981;45.462;10.974;2022-09-14T09:17:32;100332.94;;;26.67;100.00
21640;BME280;10981;45.462;10.974;2022-09-14T09:20:13;100334.53;;;26.80;100.00
21640;BME280;10981;45.462;10.974;2022-09-14T09:25:32;100338.50;;;26.77;100.00
21640;BME280;10981;45.462;10.974;2022-09-14T09:28:10;100333.47;;;26.69;100.00
21640;BME280;10981;45.462;10.974;2022-09-14T09:30:39;100337.94;;;26.75;100.00
21640;BME280;10981;45.462;10.974;2022-09-14T09:33:16;100344.81;;;26.71;100.00
21640;BME280;10981;45.462;10.974;2022-09-14T09:36:13;100355.00;;;26.57;100.00
21640;BME280;10981;45.462;10.974;2022-09-14T09:38:42;100368.44;;;26.45;100.00
21640;BME280;10981;45.462;10.974;2022-09-14T09:41:18;100363.38;;;26.20;100.00
21640;BME280;10981;45.462;10.974;2022-09-14T09:44:06;100369.88;;;26.00;100.00
21640;BME280;10981;45.462;10.974;2022-09-14T09:46:49;100362.56;;;25.84;100.00
21640;BME280;10981;45.462;10.974;2022-09-14T09:51:49;100335.38;;;26.27;100.00
21640;BME280;10981;45.462;10.974;2022-09-14T09:54:28;100315.44;;;26.64;100.00
21640;BME280;10981;45.462;10.974;2022-09-14T09:57:02;100313.81;;;26.92;100.00
21640;BME280;10981;45.462;10.974;2022-09-14T09:59:33;100310.66;;;26.95;100.00
21640;BME280;10981;45.462;10.974;2022-09-14T10:02:29;100296.34;;;27.23;100.00
21640;BME280;10981;45.462;10.974;2022-09-14T10:07:57;100277.47;;;27.52;100.00
21640;BME280;10981;45.462;10.974;2022-09-14T10:10:40;100266.78;;;27.57;100.00
21640;BME280;10981;45.462;10.974;2022-09-14T10:13:32;100260.69;;;27.62;100.00
21640;BME280;10981;45.462;10.974;2022-09-14T10:16:16;100244.38;;;27.47;100.00
21640;BME280;10981;45.462;10.974;2022-09-14T10:18:48;100231.06;;;27.57;99.21
21640;BME280;10981;45.462;10.974;2022-09-14T10:21:18;100219.53;;;27.79;100.00
21640;BME280;10981;45.462;10.974;2022-09-14T10:24:17;100203.19;;;27.85;99.68
21640;BME280;10981;45.462;10.974;2022-09-14T10:26:47;100183.38;;;27.92;97.94
21640;BME280;10981;45.462;10.974;2022-09-14T10:29:37;100171.75;;;28.08;95.06
21640;BME280;10981;45.462;10.974;2022-09-14T10:32:19;100166.19;;;28.15;93.10
21640;BME280;10981;45.462;10.974;2022-09-14T10:34:51;100137.78;;;28.02;95.12
21640;BME280;10981;45.462;10.974;2022-09-14T10:40:12;100113.94;;;28.05;96.93
21640;BME280;10981;45.462;10.974;2022-09-14T10:45:49;100091.50;;;28.22;97.66
21640;BME280;10981;45.462;10.974;2022-09-14T10:54:20;100083.91;;;27.64;97.83
21640;BME280;10981;45.462;10.974;2022-09-14T10:59:51;100096.78;;;28.12;100.00
21640;BME280;10981;45.462;10.974;2022-09-14T11:05:26;100145.63;;;28.63;91.66
21640;BME280;10981;45.462;10.974;2022-09-14T11:10:44;100153.59;;;28.80;88.10
21640;BME280;10981;45.462;10.974;2022-09-14T11:21:27;100104.25;;;29.17;90.98
21640;BME280;10981;45.462;10.974;2022-09-14T11:24:10;100089.84;;;29.39;84.72
21640;BME280;10981;45.462;10.974;2022-09-14T11:29:47;100071.63;;;29.77;83.18
21640;BME280;10981;45.462;10.974;2022-09-14T11:35:18;100021.50;;;29.97;86.88
21640;BME280;10981;45.462;10.974;2022-09-14T11:37:49;100022.25;;;29.61;81.59
21640;BME280;10981;45.462;10.974;2022-09-14T11:40:33;100023.88;;;29.62;85.17
21640;BME280;10981;45.462;10.974;2022-09-14T11:43:08;100048.69;;;29.85;83.37
21640;BME280;10981;45.462;10.974;2022-09-14T11:48:23;100084.63;;;30.16;77.65
21640;BME280;10981;45.462;10.974;2022-09-14T11:53:40;100111.88;;;30.56;76.18
21640;BME280;10981;45.462;10.974;2022-09-14T11:56:20;100112.94;;;30.14;75.72
21640;BME280;10981;45.462;10.974;2022-09-14T11:58:59;100126.38;;;29.98;77.80
21640;BME280;10981;45.462;10.974;2022-09-14T12:01:33;100124.53;;;29.99;81.35
21640;BME280;10981;45.462;10.974;2022-09-14T12:04:15;100131.19;;;29.76;78.17
21640;BME280;10981;45.462;10.974;2022-09-14T12:06:47;100106.06;;;29.55;78.87
21640;BME280;10981;45.462;10.974;2022-09-14T12:11:55;100078.25;;;29.44;83.77
21640;BME280;10981;45.462;10.974;2022-09-14T12:17:28;100079.88;;;29.50;78.21
21640;BME280;10981;45.462;10.974;2022-09-14T12:31:27;100082.19;;;30.61;72.83
21640;BME280;10981;45.462;10.974;2022-09-14T12:39:29;100088.91;;;29.97;77.31
21640;BME280;10981;45.462;10.974;2022-09-14T12:42:00;100088.00;;;29.65;73.63
21640;BME280;10981;45.462;10.974;2022-09-14T12:44:42;100100.63;;;29.39;73.01
21640;BME280;10981;45.462;10.974;2022-09-14T12:50:13;100098.63;;;29.24;76.04
21640;BME280;10981;45.462;10.974;2022-09-14T12:55:38;100103.38;;;29.65;76.07
21640;BME280;10981;45.462;10.974;2022-09-14T12:58:26;100102.97;;;30.14;71.58
21640;BME280;10981;45.462;10.974;2022-09-14T13:06:16;100079.59;;;31.82;65.09
21640;BME280;10981;45.462;10.974;2022-09-14T13:08:51;100074.59;;;31.94;63.68
21640;BME280;10981;45.462;10.974;2022-09-14T13:11:36;100087.59;;;31.98;64.92
21640;BME280;10981;45.462;10.974;2022-09-14T13:14:11;100088.34;;;31.63;64.86
21640;BME280;10981;45.462;10.974;2022-09-14T13:16:45;100082.91;;;30.88;63.73
21640;BME280;10981;45.462;10.974;2022-09-14T13:19:40;100073.53;;;30.39;66.67
21640;BME280;10981;45.462;10.974;2022-09-14T13:22:23;100066.81;;;30.10;68.84
21640;BME280;10981;45.462;10.974;2022-09-14T13:24:52;100059.25;;;30.07;70.18
21640;BME280;10981;45.462;10.974;2022-09-14T13:27:34;100057.09;;;29.99;71.43
21640;BME280;10981;45.462;10.974;2022-09-14T13:30:21;100064.38;;;29.88;74.08
21640;BME280;10981;45.462;10.974;2022-09-14T13:32:52;100058.97;;;29.93;71.11
21640;BME280;10981;45.462;10.974;2022-09-14T13:35:34;100061.69;;;30.04;73.69
21640;BME280;10981;45.462;10.974;2022-09-14T13:38:24;100068.69;;;29.89;71.13
21640;BME280;10981;45.462;10.974;2022-09-14T13:41:02;100071.31;;;29.63;70.64
21640;BME280;10981;45.462;10.974;2022-09-14T13:43:30;100065.91;;;29.58;71.06
21640;BME280;10981;45.462;10.974;2022-09-14T13:45:59;100067.75;;;29.42;72.37
21640;BME280;10981;45.462;10.974;2022-09-14T13:48:28;100062.06;;;29.33;73.58
21640;BME280;10981;45.462;10.974;2022-09-14T13:50:57;100052.31;;;29.27;75.73
21640;BME280;10981;45.462;10.974;2022-09-14T13:59:16;100059.78;;;29.05;74.11
21640;BME280;10981;45.462;10.974;2022-09-14T14:01:55;100065.56;;;28.81;75.11
21640;BME280;10981;45.462;10.974;2022-09-14T14:04:35;100064.44;;;28.72;77.23
21640;BME280;10981;45.462;10.974;2022-09-14T14:07:23;100057.94;;;28.67;77.65
21640;BME280;10981;45.462;10.974;2022-09-14T14:09:56;100068.38;;;28.59;80.62
21640;BME280;10981;45.462;10.974;2022-09-14T14:12:33;100050.84;;;28.56;80.33
21640;BME280;10981;45.462;10.974;2022-09-14T14:17:58;100046.84;;;28.59;84.05
21640;BME280;10981;45.462;10.974;2022-09-14T14:20:32;100041.69;;;28.57;86.45
21640;BME280;10981;45.462;10.974;2022-09-14T14:23:18;100047.06;;;28.52;84.00
21640;BME280;10981;45.462;10.974;2022-09-14T14:25:51;100041.59;;;28.42;81.56
21640;BME280;10981;45.462;10.974;2022-09-14T14:28:29;100038.00;;;28.26;82.04
21640;BME280;10981;45.462;10.974;2022-09-14T14:30:59;100048.47;;;28.22;82.65
21640;BME280;10981;45.462;10.974;2022-09-14T14:33:42;100044.16;;;28.21;83.20
21640;BME280;10981;45.462;10.974;2022-09-14T14:36:11;100058.88;;;28.13;87.08
21640;BME280;10981;45.462;10.974;2022-09-14T14:38:41;100057.91;;;27.97;85.42
21640;BME280;10981;45.462;10.974;2022-09-14T14:41:14;100054.97;;;27.99;84.77
21640;BME280;10981;45.462;10.974;2022-09-14T14:43:44;100047.13;;;27.97;86.24
21640;BME280;10981;45.462;10.974;2022-09-14T14:46:14;100041.38;;;27.83;86.36
21640;BME280;10981;45.462;10.974;2022-09-14T14:48:43;100029.81;;;27.83;87.96
21640;BME280;10981;45.462;10.974;2022-09-14T14:51:13;100042.16;;;27.79;93.16
21640;BME280;10981;45.462;10.974;2022-09-14T14:53:42;100044.22;;;27.71;89.68
21640;BME280;10981;45.462;10.974;2022-09-14T14:56:12;100028.63;;;27.68;93.83
21640;BME280;10981;45.462;10.974;2022-09-14T14:58:45;100028.25;;;27.60;96.88
21640;BME280;10981;45.462;10.974;2022-09-14T15:01:13;100033.00;;;27.52;92.46
21640;BME280;10981;45.462;10.974;2022-09-14T15:03:43;100035.06;;;27.45;96.96
21640;BME280;10981;45.462;10.974;2022-09-14T15:06:13;100034.78;;;27.42;93.28
21640;BME280;10981;45.462;10.974;2022-09-14T15:08:43;100034.44;;;27.38;94.34
21640;BME280;10981;45.462;10.974;2022-09-14T15:11:17;100046.44;;;27.30;93.36
21640;BME280;10981;45.462;10.974;2022-09-14T15:13:46;100050.19;;;27.29;93.79
21640;BME280;10981;45.462;10.974;2022-09-14T15:16:14;100062.19;;;27.21;95.16
21640;BME280;10981;45.462;10.974;2022-09-14T15:18:43;100065.59;;;27.17;97.36